createdAt,value
2018-12-15T20:38:48.854Z,27.07
2018-12-15T20:41:22.013Z,28.73
2018-12-15T20:43:55.087Z,28.13
2018-12-15T20:46:28.992Z,25.87
2018-12-15T20:49:02.081Z,27.40
2018-12-15T20:51:35.135Z,26.23
2018-12-15T20:54:08.197Z,27.23
2018-12-15T20:56:41.237Z,26.47
2018-12-15T20:59:14.393Z,26.73
2018-12-15T21:01:47.480Z,27.03
2018-12-15T21:04:20.632Z,26.30
2018-12-15T21:06:53.705Z,27.40
2018-12-15T21:09:26.793Z,27.90
2018-12-15T21:11:59.851Z,25.57
2018-12-15T21:14:32.947Z,27.80
2018-12-15T21:17:06.004Z,27.13
2018-12-15T21:19:39.182Z,27.77
2018-12-15T21:22:12.439Z,29.30
2018-12-15T21:24:45.630Z,27.80
2018-12-15T21:27:18.691Z,27.23
2018-12-15T21:29:51.841Z,27.90
2018-12-15T21:32:24.976Z,28.60
2018-12-15T21:34:58.090Z,28.87
2018-12-15T21:37:31.233Z,28.77
2018-12-15T21:40:05.043Z,28.27
2018-12-15T21:42:38.196Z,27.87
2018-12-15T21:45:11.489Z,28.20
2018-12-15T21:47:44.805Z,27.43
2018-12-15T21:50:17.886Z,29.17
2018-12-15T21:52:50.959Z,28.60
2018-12-15T21:55:24.057Z,29.90
2018-12-15T21:57:57.712Z,28.10
2018-12-15T22:00:30.793Z,29.30
2018-12-15T22:03:05.763Z,27.90
2018-12-15T22:05:39.050Z,28.80
2018-12-15T22:08:12.189Z,29.73
2018-12-15T22:10:45.280Z,29.77
2018-12-15T22:13:18.364Z,30.30
2018-12-15T22:15:51.445Z,28.57
2018-12-15T22:18:24.524Z,27.60
2018-12-15T22:20:58.030Z,28.23
2018-12-15T22:23:31.152Z,28.57
2018-12-15T22:26:04.837Z,29.83
2018-12-15T22:28:38.047Z,28.63
2018-12-15T22:31:11.281Z,29.77
2018-12-15T22:33:44.417Z,29.53
2018-12-15T22:36:17.667Z,30.20
2018-12-15T22:38:50.723Z,30.07
2018-12-15T22:41:23.885Z,28.70
2018-12-15T22:43:57.106Z,27.93
2018-12-15T22:46:30.293Z,28.23
2018-12-15T22:49:03.601Z,27.80
2018-12-15T22:51:37.249Z,29.93
2018-12-15T22:54:10.535Z,29.70
2018-12-15T22:56:43.625Z,29.77
2018-12-15T22:59:16.697Z,29.40
2018-12-15T23:01:49.849Z,29.47
2018-12-15T23:04:23.064Z,29.17
2018-12-15T23:06:56.167Z,29.67
2018-12-15T23:09:29.253Z,28.73
2018-12-15T23:12:02.343Z,30.90
2018-12-15T23:14:35.401Z,28.53
2018-12-15T23:17:08.498Z,31.37
2018-12-15T23:19:42.025Z,30.33
2018-12-15T23:22:16.458Z,29.87
2018-12-15T23:24:49.993Z,31.07
2018-12-15T23:27:23.455Z,31.93
2018-12-15T23:29:56.837Z,30.67
2018-12-15T23:32:29.932Z,29.97
2018-12-15T23:35:02.974Z,29.90
2018-12-15T23:37:36.063Z,28.57
2018-12-15T23:40:09.125Z,28.80
2018-12-15T23:42:42.207Z,29.37
2018-12-15T23:45:15.294Z,28.80
2018-12-15T23:47:48.381Z,28.03
2018-12-15T23:50:21.425Z,28.23
2018-12-15T23:52:54.501Z,27.07
2018-12-15T23:55:27.779Z,27.63
2018-12-15T23:58:00.908Z,27.37
